createdAt,value
2023-04-24T00:02:33.021Z,22.24
2023-04-24T00:05:05.474Z,22.20
2023-04-24T00:07:35.305Z,22.28
2023-04-24T00:10:05.048Z,22.35
2023-04-24T00:12:34.746Z,22.27
2023-04-24T00:15:04.536Z,22.23
2023-04-24T00:17:34.223Z,22.38
2023-04-24T00:20:07.100Z,22.35
2023-04-24T00:22:36.836Z,22.45
2023-04-24T00:25:06.800Z,22.42
2023-04-24T00:27:38.332Z,22.35
2023-04-24T00:30:08.851Z,22.43
2023-04-24T00:32:38.605Z,22.41
2023-04-24T00:35:09.050Z,22.48
2023-04-24T00:37:38.808Z,22.48
2023-04-24T00:40:09.254Z,22.39
2023-04-24T00:42:38.923Z,22.43
2023-04-24T00:45:09.265Z,22.52
2023-04-24T00:47:39.438Z,22.55
2023-04-24T00:50:09.751Z,22.48
2023-04-24T00:52:39.677Z,22.49
2023-04-24T00:55:09.746Z,22.48
2023-04-24T00:57:39.995Z,22.53
2023-04-24T01:00:13.068Z,22.55
2023-04-24T01:02:50.433Z,22.57
2023-04-24T01:05:21.509Z,22.61
2023-04-24T01:07:51.575Z,22.62
2023-04-24T01:10:22.849Z,22.64
2023-04-24T01:12:52.506Z,22.64
2023-04-24T01:15:22.373Z,22.66
2023-04-24T01:17:55.420Z,22.71
2023-04-24T01:20:25.417Z,22.59
2023-04-24T01:22:55.840Z,22.67
2023-04-24T01:25:26.073Z,22.72
2023-04-24T01:27:56.823Z,22.74
2023-04-24T01:30:26.515Z,22.72
2023-04-24T01:32:57.837Z,22.76
2023-04-24T01:35:30.825Z,22.78
2023-04-24T01:38:00.509Z,22.75
2023-04-24T01:40:30.155Z,22.76
2023-04-24T01:42:59.857Z,22.76
2023-04-24T01:45:29.576Z,22.78
2023-04-24T01:48:02.599Z,22.86
2023-04-24T01:50:32.942Z,22.90
2023-04-24T01:53:02.596Z,22.83
2023-04-24T01:55:32.250Z,22.83
2023-04-24T01:58:01.903Z,22.84
2023-04-24T02:00:31.642Z,22.85
2023-04-24T02:03:01.466Z,22.87
2023-04-24T02:05:31.555Z,22.88
2023-04-24T02:08:01.208Z,22.88
2023-04-24T02:10:30.875Z,22.93
2023-04-24T02:13:02.200Z,22.91
2023-04-24T02:15:32.424Z,22.99
2023-04-24T02:18:02.234Z,22.99
2023-04-24T02:20:31.985Z,22.97
2023-04-24T02:23:01.682Z,22.94
2023-04-24T02:25:31.366Z,22.93
2023-04-24T02:28:01.046Z,22.93
2023-04-24T02:30:30.682Z,23.01
2023-04-24T02:33:00.304Z,23.01
2023-04-24T02:35:29.961Z,22.98
2023-04-24T02:37:59.608Z,23.00
2023-04-24T02:40:29.204Z,22.99
2023-04-24T02:42:58.828Z,23.04
2023-04-24T02:45:28.439Z,23.01
2023-04-24T02:47:58.128Z,23.08
2023-04-24T02:50:27.858Z,22.99
2023-04-24T02:52:57.559Z,23.00
2023-04-24T02:55:27.656Z,23.09
2023-04-24T02:57:57.379Z,23.07
2023-04-24T03:00:27.029Z,23.10
2023-04-24T03:02:56.857Z,23.08
2023-04-24T03:05:26.962Z,23.05
2023-04-24T03:07:56.635Z,23.14
2023-04-24T03:10:29.249Z,23.07
2023-04-24T03:12:58.951Z,23.10
2023-04-24T03:15:28.629Z,23.10
2023-04-24T03:17:58.341Z,23.13
2023-04-24T03:20:28.341Z,23.07
2023-04-24T03:22:58.926Z,23.12
2023-04-24T03:25:28.626Z,23.14
2023-04-24T03:27:58.409Z,23.19
2023-04-24T03:30:28.118Z,23.15
2023-04-24T03:32:58.249Z,23.17
2023-04-24T03:35:28.006Z,23.13
2023-04-24T03:37:57.682Z,23.21
2023-04-24T03:40:28.731Z,23.19
2023-04-24T03:42:58.434Z,23.20
2023-04-24T03:45:31.270Z,23.19
2023-04-24T03:48:03.943Z,23.19
2023-04-24T03:50:33.708Z,23.17
2023-04-24T03:53:03.401Z,23.20
2023-04-24T03:55:33.121Z,23.25
2023-04-24T03:58:03.311Z,23.21
2023-04-24T04:00:34.458Z,23.20
2023-04-24T04:03:04.466Z,23.26
2023-04-24T04:05:34.256Z,23.24
2023-04-24T04:08:03.904Z,23.28
2023-04-24T04:10:33.535Z,23.30
2023-04-24T04:13:03.459Z,23.28
2023-04-24T04:15:33.168Z,23.29
2023-04-24T04:18:02.976Z,23.26
2023-04-24T04:20:32.776Z,23.36
2023-04-24T04:23:02.669Z,23.37
2023-04-24T04:25:32.266Z,23.38
2023-04-24T04:28:02.118Z,23.46
2023-04-24T04:30:34.782Z,23.37
2023-04-24T04:33:07.112Z,23.36
2023-04-24T04:35:37.002Z,23.35
2023-04-24T04:38:07.185Z,23.43
2023-04-24T04:40:36.960Z,23.49
2023-04-24T04:43:06.710Z,23.41
2023-04-24T04:45:37.014Z,23.61
2023-04-24T04:48:06.707Z,23.73
2023-04-24T04:50:36.530Z,23.71
2023-04-24T04:53:06.154Z,23.72
2023-04-24T04:55:35.777Z,23.81
2023-04-24T04:58:05.410Z,23.82
2023-04-24T05:00:38.280Z,23.75
2023-04-24T05:03:19.811Z,23.79
2023-04-24T05:05:50.669Z,23.78
2023-04-24T05:08:27.259Z,23.84
2023-04-24T05:10:57.940Z,23.83
2023-04-24T05:13:38.080Z,23.76
2023-04-24T05:16:08.986Z,23.82
2023-04-24T05:18:38.618Z,23.90
2023-04-24T05:21:08.557Z,23.90
2023-04-24T05:23:38.334Z,23.87
2023-04-24T05:26:08.225Z,23.86
2023-04-24T05:28:39.183Z,23.93
2023-04-24T05:31:09.034Z,23.98
2023-04-24T05:33:38.761Z,23.96
2023-04-24T05:36:09.210Z,23.90
2023-04-24T05:38:38.944Z,23.98
2023-04-24T05:41:08.624Z,23.95
2023-04-24T05:43:38.237Z,24.06
2023-04-24T05:46:08.028Z,24.07
2023-04-24T05:48:37.766Z,23.98
2023-04-24T05:51:07.488Z,23.90
2023-04-24T05:53:37.103Z,24.00
2023-04-24T05:56:06.774Z,24.11
2023-04-24T05:58:36.417Z,24.03
2023-04-24T06:01:06.140Z,24.01
2023-04-24T06:03:36.150Z,24.08
2023-04-24T06:06:06.154Z,24.11
2023-04-24T06:08:35.750Z,24.02
2023-04-24T06:11:05.520Z,24.04
2023-04-24T06:13:35.215Z,24.06
2023-04-24T06:16:04.856Z,24.03
2023-04-24T06:18:34.506Z,23.89
2023-04-24T06:21:04.180Z,23.82
2023-04-24T06:23:35.489Z,23.83
2023-04-24T06:26:05.127Z,23.76
2023-04-24T06:28:34.784Z,23.69
2023-04-24T06:31:04.434Z,23.68
2023-04-24T06:33:34.213Z,23.64
2023-04-24T06:36:03.942Z,23.69
2023-04-24T06:38:33.715Z,23.63
2023-04-24T06:41:03.459Z,23.61
2023-04-24T06:43:33.238Z,23.60
2023-04-24T06:46:03.364Z,23.59
2023-04-24T06:48:35.997Z,23.61
2023-04-24T06:51:05.833Z,23.57
2023-04-24T06:53:35.815Z,23.57
2023-04-24T06:56:06.622Z,23.58
2023-04-24T06:58:36.313Z,23.61
2023-04-24T07:01:05.930Z,23.51
2023-04-24T07:03:35.789Z,23.43
2023-04-24T07:06:05.901Z,23.47
2023-04-24T07:08:39.362Z,23.49
2023-04-24T07:11:09.191Z,23.47
2023-04-24T07:13:38.865Z,23.45
2023-04-24T07:16:08.581Z,23.40
2023-04-24T07:18:39.094Z,23.40
2023-04-24T07:21:09.713Z,23.40
2023-04-24T07:23:39.310Z,23.42
2023-04-24T07:26:09.114Z,23.31
2023-04-24T07:28:38.836Z,23.27
2023-04-24T07:31:08.723Z,23.35
2023-04-24T07:33:38.778Z,23.44
2023-04-24T07:36:08.811Z,23.44
2023-04-24T07:38:38.412Z,23.31
2023-04-24T07:41:08.177Z,23.38
2023-04-24T07:43:38.160Z,23.43
2023-04-24T07:46:09.116Z,23.37
2023-04-24T07:48:39.268Z,23.44
2023-04-24T07:51:08.936Z,23.40
2023-04-24T07:53:38.531Z,23.29
2023-04-24T07:56:08.975Z,23.44
2023-04-24T07:58:38.742Z,23.34
2023-04-24T08:01:08.408Z,23.38
2023-04-24T08:03:38.270Z,23.37
2023-04-24T08:06:08.447Z,23.40
2023-04-24T08:08:38.151Z,23.43
2023-04-24T08:11:07.835Z,23.40
2023-04-24T08:13:37.592Z,23.33
2023-04-24T08:16:07.390Z,23.35
2023-04-24T08:18:38.524Z,23.31
2023-04-24T08:21:08.209Z,23.36
2023-04-24T08:23:37.920Z,23.37
2023-04-24T08:26:07.896Z,23.35
2023-04-24T08:28:37.725Z,23.34
2023-04-24T08:31:07.845Z,23.32
2023-04-24T08:33:37.601Z,23.32
2023-04-24T08:36:08.061Z,23.35
2023-04-24T08:38:37.758Z,23.31
2023-04-24T08:41:07.776Z,23.30
2023-04-24T08:43:39.075Z,23.36
2023-04-24T08:46:11.121Z,23.34
2023-04-24T08:48:42.535Z,23.38
2023-04-24T08:51:12.307Z,23.26
2023-04-24T08:53:42.764Z,23.28
2023-04-24T08:56:12.487Z,23.22
2023-04-24T08:58:42.226Z,23.23
2023-04-24T09:01:11.852Z,23.23
2023-04-24T09:03:41.771Z,23.29
2023-04-24T09:06:12.949Z,23.26
2023-04-24T09:08:42.776Z,23.30
2023-04-24T09:11:12.470Z,23.29
2023-04-24T09:13:42.253Z,23.20
2023-04-24T09:16:12.022Z,23.19
2023-04-24T09:18:41.741Z,23.28
2023-04-24T09:21:12.033Z,23.25
2023-04-24T09:23:41.782Z,23.22
2023-04-24T09:26:13.064Z,23.21
2023-04-24T09:28:43.480Z,23.28
2023-04-24T09:31:18.342Z,23.29
2023-04-24T09:34:17.225Z,23.12
2023-04-24T09:36:47.041Z,23.15
2023-04-24T09:39:22.376Z,23.21
2023-04-24T09:41:53.533Z,23.20
2023-04-24T09:44:27.763Z,23.12
2023-04-24T09:46:57.977Z,23.16
2023-04-24T09:49:32.458Z,23.27
2023-04-24T09:52:08.778Z,23.18
2023-04-24T09:54:39.428Z,23.17
2023-04-24T09:57:12.058Z,23.19
2023-04-24T09:59:50.555Z,23.19
2023-04-24T10:02:23.464Z,23.02
2023-04-24T10:05:01.830Z,23.12
2023-04-24T10:07:31.640Z,23.15
2023-04-24T10:10:01.355Z,23.15
2023-04-24T10:12:31.560Z,23.23
2023-04-24T10:15:01.447Z,23.16
2023-04-24T10:17:31.068Z,23.09
2023-04-24T10:20:00.700Z,23.17
2023-04-24T10:22:32.424Z,23.17
2023-04-24T10:25:02.470Z,23.18
2023-04-24T10:27:32.121Z,23.14
2023-04-24T10:30:01.909Z,23.11
2023-04-24T10:32:31.736Z,23.20
2023-04-24T10:35:01.396Z,23.14
2023-04-24T10:37:31.023Z,23.19
2023-04-24T10:40:00.619Z,23.14
2023-04-24T10:42:31.024Z,23.15
2023-04-24T10:45:00.865Z,23.14
2023-04-24T10:47:30.539Z,23.10
2023-04-24T10:50:02.902Z,23.10
2023-04-24T10:52:47.952Z,23.01
2023-04-24T10:55:20.662Z,23.10
2023-04-24T10:58:08.572Z,22.95
2023-04-24T11:00:40.923Z,23.07
2023-04-24T11:03:36.866Z,23.10
2023-04-24T11:06:08.374Z,23.18
2023-04-24T11:08:50.687Z,23.16
2023-04-24T11:11:23.304Z,23.19
2023-04-24T11:13:59.177Z,23.18
2023-04-24T11:16:57.579Z,23.14
2023-04-24T11:19:31.474Z,23.13
2023-04-24T11:22:03.678Z,23.12
2023-04-24T11:24:42.294Z,23.15
2023-04-24T11:27:25.208Z,23.11
2023-04-24T11:30:02.389Z,23.07
2023-04-24T11:32:39.807Z,23.06
2023-04-24T11:35:18.710Z,23.03
2023-04-24T11:40:28.188Z,23.00
2023-04-24T11:42:58.083Z,23.03
2023-04-24T11:45:33.817Z,22.99
2023-04-24T11:48:03.534Z,23.07
2023-04-24T11:50:33.260Z,23.02
2023-04-24T11:53:03.076Z,22.98
2023-04-24T11:55:32.979Z,23.00
2023-04-24T11:58:03.506Z,22.99
2023-04-24T12:00:38.082Z,22.98
2023-04-24T12:03:12.169Z,22.91
2023-04-24T12:05:42.657Z,22.94
2023-04-24T12:08:12.518Z,22.87
2023-04-24T12:10:42.175Z,22.87
2023-04-24T12:13:14.113Z,22.89
2023-04-24T12:15:44.073Z,22.84
2023-04-24T12:18:16.417Z,22.80
2023-04-24T12:20:46.129Z,22.82
2023-04-24T12:23:15.845Z,22.78
2023-04-24T12:25:45.522Z,22.83
2023-04-24T12:28:15.901Z,22.82
2023-04-24T12:30:47.330Z,22.80
2023-04-24T12:33:25.527Z,22.75
2023-04-24T12:35:58.313Z,22.74
2023-04-24T12:38:29.791Z,22.72
2023-04-24T12:41:12.672Z,22.70
2023-04-24T12:43:42.353Z,22.73
2023-04-24T12:46:12.154Z,22.71
2023-04-24T12:48:41.998Z,22.78
2023-04-24T12:51:11.979Z,22.70
2023-04-24T12:53:41.953Z,22.65
2023-04-24T12:56:12.099Z,22.64
2023-04-24T12:58:41.782Z,22.69
2023-04-24T13:01:11.467Z,22.65
2023-04-24T13:03:41.765Z,22.65
2023-04-24T13:06:11.765Z,22.63
2023-04-24T13:08:41.397Z,22.65
2023-04-24T13:11:11.084Z,22.65
2023-04-24T13:13:41.134Z,22.65
2023-04-24T13:16:10.994Z,22.62
2023-04-24T13:18:40.620Z,22.64
2023-04-24T13:21:10.328Z,22.64
2023-04-24T13:23:40.147Z,22.64
2023-04-24T13:26:10.151Z,22.63
2023-04-24T13:28:40.857Z,22.63
2023-04-24T13:31:10.574Z,22.65
2023-04-24T13:33:40.224Z,22.62
2023-04-24T13:36:10.026Z,22.63
2023-04-24T13:38:39.721Z,22.60
2023-04-24T13:41:09.360Z,22.58
2023-04-24T13:43:39.271Z,22.61
2023-04-24T13:46:08.929Z,22.57
2023-04-24T13:48:38.660Z,22.60
2023-04-24T13:51:08.339Z,22.49
2023-04-24T13:53:41.020Z,22.47
2023-04-24T13:56:11.535Z,22.53
2023-04-24T13:58:41.259Z,22.52
2023-04-24T14:01:10.963Z,22.54
2023-04-24T14:03:43.860Z,22.47
2023-04-24T14:06:14.129Z,22.48
2023-04-24T14:08:43.928Z,22.45
2023-04-24T14:11:13.568Z,22.45
2023-04-24T14:13:46.691Z,22.45
2023-04-24T14:16:17.103Z,22.44
2023-04-24T14:18:47.084Z,22.43
2023-04-24T14:21:16.779Z,22.38
2023-04-24T14:23:46.923Z,22.38
2023-04-24T14:26:16.894Z,22.38
2023-04-24T14:28:46.546Z,22.38
2023-04-24T14:31:16.270Z,22.39
2023-04-24T14:33:46.125Z,22.39
2023-04-24T14:36:15.998Z,22.40
2023-04-24T14:38:45.676Z,22.33
2023-04-24T14:41:15.449Z,22.36
2023-04-24T14:43:45.356Z,22.38
2023-04-24T14:46:15.230Z,22.30
2023-04-24T14:48:44.845Z,22.33
2023-04-24T14:51:14.684Z,22.26
2023-04-24T14:53:44.539Z,22.30
2023-04-24T14:56:14.425Z,22.26
2023-04-24T14:58:44.025Z,22.25
2023-04-24T15:01:14.190Z,22.24
2023-04-24T15:03:44.199Z,22.21
2023-04-24T15:06:14.016Z,22.16
2023-04-24T15:08:44.535Z,22.22
2023-04-24T15:11:14.223Z,22.22
2023-04-24T15:13:44.030Z,22.18
2023-04-24T15:16:13.977Z,22.20
2023-04-24T15:18:43.921Z,22.13
2023-04-24T15:21:15.179Z,22.19
2023-04-24T15:23:45.186Z,22.24
2023-04-24T15:26:15.609Z,22.25
2023-04-24T15:28:45.380Z,22.24
2023-04-24T15:31:15.143Z,22.18
2023-04-24T15:33:45.256Z,22.13
2023-04-24T15:36:14.999Z,22.18
2023-04-24T15:38:45.571Z,22.19
2023-04-24T15:41:15.367Z,22.17
2023-04-24T15:43:45.974Z,22.19
2023-04-24T15:46:15.894Z,22.17
2023-04-24T15:48:45.791Z,22.17
2023-04-24T15:51:15.421Z,22.18
2023-04-24T15:53:45.786Z,22.19
2023-04-24T15:56:16.036Z,22.13
2023-04-24T15:58:46.164Z,22.07
2023-04-24T16:01:16.329Z,22.12
2023-04-24T16:03:46.314Z,22.05
2023-04-24T16:06:16.401Z,22.11
2023-04-24T16:08:46.468Z,22.10
2023-04-24T16:11:16.272Z,22.09
2023-04-24T16:13:45.906Z,22.06
2023-04-24T16:16:15.588Z,22.05
2023-04-24T16:18:45.378Z,22.13
2023-04-24T16:21:15.180Z,22.07
2023-04-24T16:23:44.804Z,22.08
2023-04-24T16:26:14.468Z,22.06
2023-04-24T16:28:44.932Z,22.11
2023-04-24T16:31:14.658Z,22.10
2023-04-24T16:33:44.560Z,22.07
2023-04-24T16:36:14.964Z,22.06
2023-04-24T16:38:44.624Z,22.08
2023-04-24T16:41:14.320Z,22.05
2023-04-24T16:43:43.946Z,22.05
2023-04-24T16:46:13.645Z,22.04
2023-04-24T16:48:43.273Z,22.01
2023-04-24T16:51:12.909Z,22.05
2023-04-24T16:53:42.596Z,22.06
2023-04-24T16:56:12.234Z,22.02
2023-04-24T16:58:41.955Z,22.07
2023-04-24T17:01:11.805Z,22.05
2023-04-24T17:03:41.908Z,22.06
2023-04-24T17:06:11.866Z,22.10
2023-04-24T17:08:41.493Z,22.08
2023-04-24T17:11:11.108Z,22.02
2023-04-24T17:13:40.703Z,22.03
2023-04-24T17:16:10.494Z,22.01
2023-04-24T17:18:40.603Z,22.05
2023-04-24T17:21:10.249Z,22.01
2023-04-24T17:23:40.025Z,22.02
2023-04-24T17:26:09.731Z,21.94
2023-04-24T17:28:39.367Z,22.00
2023-04-24T17:31:09.041Z,22.00
2023-04-24T17:33:38.701Z,21.99
2023-04-24T17:36:08.850Z,22.05
2023-04-24T17:38:38.497Z,22.00
2023-04-24T17:41:08.652Z,22.03
2023-04-24T17:43:38.334Z,22.04
2023-04-24T17:46:09.276Z,22.06
2023-04-24T17:48:38.959Z,22.01
2023-04-24T17:51:08.634Z,21.97
2023-04-24T17:53:38.300Z,21.99
2023-04-24T17:56:08.646Z,21.96
2023-04-24T17:58:38.345Z,21.99
2023-04-24T18:01:08.069Z,21.97
2023-04-24T18:03:38.005Z,21.99
2023-04-24T18:06:18.711Z,22.00
2023-04-24T18:08:48.704Z,22.00
2023-04-24T18:11:18.548Z,21.92
2023-04-24T18:13:48.245Z,21.93
2023-04-24T18:16:18.078Z,21.96
2023-04-24T18:18:48.151Z,22.00
2023-04-24T18:21:17.903Z,21.96
2023-04-24T18:23:47.819Z,21.97
2023-04-24T18:26:18.646Z,21.98
2023-04-24T18:28:48.916Z,21.97
2023-04-24T18:31:18.854Z,21.93
2023-04-24T18:33:48.876Z,21.90
2023-04-24T18:36:18.707Z,21.85
2023-04-24T18:38:48.655Z,21.93
2023-04-24T18:41:18.533Z,21.86
2023-04-24T18:43:49.297Z,21.82
2023-04-24T18:46:18.934Z,21.82
2023-04-24T18:48:48.777Z,21.87
2023-04-24T18:51:18.659Z,21.89
2023-04-24T18:53:48.321Z,21.88
2023-04-24T18:56:18.127Z,21.90
2023-04-24T18:58:47.911Z,21.92
2023-04-24T19:01:17.723Z,21.88
2023-04-24T19:03:47.626Z,21.89
2023-04-24T19:06:17.409Z,21.86
2023-04-24T19:08:47.424Z,21.89
2023-04-24T19:11:17.376Z,21.88
2023-04-24T19:13:47.192Z,21.88
2023-04-24T19:16:16.925Z,21.93
2023-04-24T19:18:46.803Z,21.91
2023-04-24T19:21:16.591Z,21.92
2023-04-24T19:23:47.510Z,21.90
2023-04-24T19:26:17.141Z,21.90
2023-04-24T19:28:47.215Z,21.86
2023-04-24T19:31:17.172Z,21.87
2023-04-24T19:33:49.883Z,21.86
2023-04-24T19:36:19.789Z,21.86
2023-04-24T19:38:49.792Z,21.90
2023-04-24T19:41:19.569Z,21.93
2023-04-24T19:43:51.227Z,21.90
2023-04-24T19:46:21.017Z,21.89
2023-04-24T19:48:51.111Z,21.87
2023-04-24T19:51:21.132Z,21.86
2023-04-24T19:53:51.057Z,21.82
2023-04-24T19:56:20.707Z,21.84
2023-04-24T19:58:50.594Z,21.79
2023-04-24T20:01:20.414Z,21.86
2023-04-24T20:03:50.334Z,22.31
2023-04-24T20:06:20.008Z,22.31
2023-04-24T20:08:49.966Z,22.46
2023-04-24T20:11:20.023Z,22.51
2023-04-24T20:13:49.659Z,22.52
2023-04-24T20:16:19.477Z,22.47
2023-04-24T20:18:49.397Z,22.53
2023-04-24T20:21:19.196Z,22.49
2023-04-24T20:23:48.907Z,22.49
2023-04-24T20:26:18.568Z,22.55
2023-04-24T20:28:48.457Z,22.49
2023-04-24T20:31:18.427Z,22.55
2023-04-24T20:36:17.288Z,22.48
2023-04-24T20:38:48.671Z,22.57
2023-04-24T20:41:18.711Z,22.46
2023-04-24T20:43:48.369Z,22.48
2023-04-24T20:48:47.197Z,22.40
2023-04-24T20:51:17.017Z,22.40
2023-04-24T20:53:46.662Z,22.43
2023-04-24T20:56:16.315Z,22.54
2023-04-24T20:58:49.620Z,22.32
2023-04-24T21:01:19.669Z,22.47
2023-04-24T21:03:49.742Z,22.35
2023-04-24T21:06:19.658Z,22.38
2023-04-24T21:08:49.303Z,22.36
2023-04-24T21:11:18.944Z,22.32
2023-04-24T21:13:48.730Z,22.10
2023-04-24T21:16:18.570Z,22.36
2023-04-24T21:18:48.264Z,22.36
2023-04-24T21:21:17.941Z,22.42
2023-04-24T21:26:17.039Z,22.20
2023-04-24T21:28:46.774Z,22.26
2023-04-24T21:31:16.434Z,22.38
2023-04-24T21:36:15.161Z,22.31
2023-04-24T21:38:44.771Z,22.11
2023-04-24T21:41:14.381Z,22.35
2023-04-24T21:43:45.816Z,22.14
2023-04-24T21:46:16.409Z,22.38
2023-04-24T21:48:46.091Z,22.24
2023-04-24T21:51:16.066Z,22.37
2023-04-24T21:53:45.817Z,22.19
2023-04-24T21:56:15.420Z,22.25
2023-04-24T21:58:45.131Z,22.27
2023-04-24T22:01:17.057Z,22.33
2023-04-24T22:03:46.973Z,22.45
2023-04-24T22:06:16.831Z,22.39
2023-04-24T22:08:49.181Z,22.39
2023-04-24T22:11:26.838Z,22.47
2023-04-24T22:13:57.603Z,22.54
2023-04-24T22:16:29.097Z,22.50
2023-04-24T22:19:00.753Z,22.67
2023-04-24T22:21:30.518Z,22.73
2023-04-24T22:24:00.257Z,22.58
2023-04-24T22:26:30.079Z,22.59
2023-04-24T22:28:59.752Z,22.66
2023-04-24T22:31:29.436Z,22.64
2023-04-24T22:33:59.096Z,22.63
2023-04-24T22:36:31.963Z,22.72
2023-04-24T22:39:02.133Z,22.75
2023-04-24T22:41:32.314Z,22.71
2023-04-24T22:44:04.376Z,22.76
2023-04-24T22:46:34.225Z,22.67
2023-04-24T22:49:04.305Z,22.84
2023-04-24T22:51:37.478Z,22.85
2023-04-24T22:54:07.322Z,22.99
2023-04-24T22:56:37.568Z,23.06
2023-04-24T22:59:10.874Z,23.07
2023-04-24T23:01:40.528Z,23.10
2023-04-24T23:04:10.948Z,23.09
2023-04-24T23:06:40.666Z,23.23
2023-04-24T23:09:10.464Z,23.28
2023-04-24T23:11:40.130Z,23.36
2023-04-24T23:14:10.076Z,23.43
2023-04-24T23:16:41.134Z,23.46
2023-04-24T23:19:10.852Z,23.48
2023-04-24T23:21:40.567Z,23.53
2023-04-24T23:24:10.461Z,23.55
2023-04-24T23:26:41.082Z,23.57
2023-04-24T23:29:13.378Z,23.61
2023-04-24T23:31:43.051Z,23.60
2023-04-24T23:34:12.793Z,23.60
2023-04-24T23:36:42.520Z,23.62
2023-04-24T23:39:12.213Z,23.67
2023-04-24T23:41:42.896Z,23.71
2023-04-24T23:44:16.168Z,23.70
2023-04-24T23:46:45.780Z,23.69
2023-04-24T23:49:16.298Z,23.71
2023-04-24T23:51:46.129Z,23.78
2023-04-24T23:54:15.838Z,23.75
2023-04-24T23:56:45.507Z,23.73
2023-04-24T23:59:15.764Z,23.73
